首页
METAR-TAF:

METAR-TAF

机场 :

西安咸阳国际机场

西安, 中华人民共和国

纬度: 34-26N, 经度: 108-45E, 海拔: 479米

当前天气观测

该预报发布于18分钟前的16:00 UTC
风速2节,风向多变
温度 3°C
湿度 75%
气压 1028 hPa
能見度: 2500

METAR: ZLXY 201600Z VRB01MPS 2500 HZ NSC 03/M01 Q1028 NOSIG

时间: 00:18 (16:18 UTC)

预报

该预报发布于7小时和16分钟前的09:02 UTC
预报有效从20日的 12点(UTC)到 21日的 12点(UTC)
风速6节,风向东转东北
能見度: 2000
轻雾
成为
从 21日的 02点(UTC)到 21日的 03点(UTC)
能見度: 1400
小雨, 轻雾
成为
从 21日的 03点(UTC)到 21日的 04点(UTC)
能見度: 2000

TAF: ZLXY 200902Z 2012/2112 06003MPS 2000 BR NSC TX06/2107Z TN01/2023Z BECMG 2102/2103 1400 -RA BR BECMG 2103/2104 2000

超过4000个机场的气象观测和天气预报(METAR&TAF报告)。

可查询的气象台以黄色和红色小点在地图上表示。

将鼠标移到小点上方,可查看气象台名称。

然后点击查看天气观测和预报。

如需切换地图:点击带黑十字的绿色按钮放大地图;点击带横线的绿色按钮缩小地图;或者点击绿色箭头查看邻近地区的地图。


METAR-TAF: